Time;durP1;ratioP1;P1;durP2;ratioP2;P2;SDS_P1;SDS_P2;PMS_P1;PMS_P2;Temp;Humidity;BMP_temperature;BMP_pressure;BME280_temperature;BME280_humidity;BME280_pressure;Samples;Min_cycle;Max_cycle;Signal;HPM_P1;HPM_P2
2021/09/02 00:02:17;;;;;;;7.68;5.45;;;13.30;99.90;;;;;;5036167;28;20049;-70
2021/09/02 00:04:43;;;;;;;9.05;4.63;;;13.20;99.90;;;;;;5048865;28;20068;-70
2021/09/02 00:07:08;;;;;;;11.57;5.88;;;13.10;99.90;;;;;;5047656;28;20049;-70
2021/09/02 00:09:34;;;;;;;7.25;5.07;;;13.10;99.90;;;;;;5049462;28;20041;-71
2021/09/02 00:12:01;;;;;;;8.77;5.35;;;13.00;99.90;;;;;;5071526;28;20048;-70
2021/09/02 00:14:27;;;;;;;24.52;5.68;;;12.90;99.90;;;;;;5045903;28;20059;-70
2021/09/02 00:16:53;;;;;;;12.65;6.32;;;13.00;99.90;;;;;;5062609;28;20113;-70
2021/09/02 00:19:19;;;;;;;10.00;5.32;;;13.00;99.90;;;;;;5042804;28;20049;-70
2021/09/02 00:21:45;;;;;;;9.43;6.00;;;13.00;99.90;;;;;;5062075;28;20059;-70
2021/09/02 00:24:11;;;;;;;10.80;5.95;;;13.00;99.90;;;;;;5044410;28;20041;-70
2021/09/02 00:26:37;;;;;;;9.32;5.75;;;13.10;99.90;;;;;;5044392;28;20053;-70
2021/09/02 00:29:03;;;;;;;14.15;7.25;;;13.00;99.90;;;;;;5038374;28;20049;-70
2021/09/02 00:31:28;;;;;;;14.32;6.88;;;13.10;99.90;;;;;;5042051;28;20038;-70
2021/09/02 00:33:54;;;;;;;14.13;7.95;;;13.10;99.90;;;;;;5055509;28;20046;-70
2021/09/02 00:36:20;;;;;;;15.20;7.10;;;13.10;99.90;;;;;;5031206;28;20137;-70
2021/09/02 00:38:45;;;;;;;16.02;6.93;;;13.00;99.90;;;;;;5040407;28;20052;-70
2021/09/02 00:41:11;;;;;;;14.75;7.63;;;13.10;99.90;;;;;;5042211;28;20041;-70
2021/09/02 00:43:38;;;;;;;13.23;6.43;;;13.10;99.90;;;;;;5065795;28;20053;-70
2021/09/02 00:46:05;;;;;;;14.47;7.37;;;13.20;99.90;;;;;;5062753;28;20049;-72
2021/09/02 00:48:31;;;;;;;10.38;5.80;;;13.20;99.90;;;;;;5054681;28;20303;-72
2021/09/02 00:50:56;;;;;;;14.02;7.00;;;13.20;99.90;;;;;;5032061;28;20034;-69
2021/09/02 00:53:22;;;;;;;17.45;7.57;;;13.30;99.90;;;;;;5037685;28;20562;-69
2021/09/02 00:55:48;;;;;;;13.75;7.20;;;13.30;99.90;;;;;;5031514;28;20084;-71
2021/09/02 00:58:14;;;;;;;17.13;7.72;;;13.40;99.90;;;;;;5038986;28;20489;-72
2021/09/02 01:00:40;;;;;;;10.52;6.85;;;13.40;99.90;;;;;;5031212;28;20045;-69
2021/09/02 01:03:06;;;;;;;17.73;6.95;;;13.40;99.90;;;;;;5037030;28;20046;-69
2021/09/02 01:05:31;;;;;;;20.98;7.75;;;13.50;99.90;;;;;;5030830;28;20068;-71
2021/09/02 01:07:59;;;;;;;14.13;7.18;;;13.50;99.90;;;;;;5038241;28;20079;-71
2021/09/02 01:10:25;;;;;;;26.40;8.50;;;13.60;99.90;;;;;;5031792;28;20551;-72
2021/09/02 01:12:51;;;;;;;18.92;8.02;;;13.60;99.90;;;;;;5036267;28;20041;-69
2021/09/02 01:15:25;;;;;;;15.85;6.35;;;13.70;99.90;;;;;;5033745;28;20106;-71
2021/09/02 01:17:57;;;;;;;14.55;8.30;;;13.80;99.90;;;;;;5034034;28;20042;-70
2021/09/02 01:20:25;;;;;;;16.52;7.40;;;13.80;99.90;;;;;;5031442;28;20121;-70
2021/09/02 01:22:52;;;;;;;16.20;7.80;;;13.90;99.90;;;;;;5033962;28;20096;-70
2021/09/02 01:25:20;;;;;;;17.27;7.55;;;13.90;99.90;;;;;;5034558;28;20038;-70
2021/09/02 01:27:50;;;;;;;18.95;7.90;;;13.80;99.90;;;;;;5032242;28;20060;-70
2021/09/02 01:30:17;;;;;;;17.80;7.30;;;13.80;99.90;;;;;;5043385;28;20116;-69
2021/09/02 01:32:44;;;;;;;18.52;8.50;;;13.80;99.90;;;;;;5022305;28;20069;-70
2021/09/02 01:35:12;;;;;;;;;;;13.80;99.90;;;;;;5043457;28;20053;-70
2021/09/02 01:37:43;;;;;;;22.58;7.25;;;13.80;99.90;;;;;;5063268;28;20255;-70
2021/09/02 01:40:15;;;;;;;18.63;8.23;;;13.80;99.90;;;;;;5042721;28;20050;-70
2021/09/02 01:42:41;;;;;;;23.80;9.18;;;13.80;99.90;;;;;;5036268;28;20048;-70
2021/09/02 01:45:07;;;;;;;19.10;7.28;;;13.80;99.90;;;;;;5040860;28;20065;-70
2021/09/02 01:47:33;;;;;;;18.00;8.30;;;13.80;99.90;;;;;;5071455;28;20110;-70
2021/09/02 01:50:17;;;;;;;20.30;8.65;;;13.80;99.90;;;;;;5036161;28;20049;-70
2021/09/02 01:52:44;;;;;;;20.00;8.30;;;13.80;99.90;;;;;;5038376;28;20064;-70
2021/09/02 01:55:11;;;;;;;20.50;8.23;;;13.80;99.90;;;;;;5037620;28;20105;-70
2021/09/02 01:57:37;;;;;;;18.55;8.23;;;13.80;99.90;;;;;;5039021;28;20068;-69
2021/09/02 02:00:08;;;;;;;18.77;9.20;;;13.80;99.90;;;;;;5067769;28;20063;-70
2021/09/02 02:02:34;;;;;;;17.60;7.80;;;13.80;99.90;;;;;;5043292;28;20041;-70
2021/09/02 02:05:00;;;;;;;21.73;7.35;;;13.80;99.90;;;;;;5038433;28;20064;-72
2021/09/02 02:07:26;;;;;;;18.95;8.52;;;13.80;99.90;;;;;;5044500;28;20116;-69
2021/09/02 02:09:53;;;;;;;18.73;7.82;;;13.90;99.90;;;;;;5036907;28;20065;-72
2021/09/02 02:12:19;;;;;;;20.67;10.07;;;13.90;99.90;;;;;;5044080;28;20049;-71
2021/09/02 02:14:45;;;;;;;19.80;9.55;;;14.00;99.90;;;;;;5037045;28;20081;-71
2021/09/02 02:17:10;;;;;;;19.67;7.63;;;13.90;99.90;;;;;;5042078;28;20056;-71
2021/09/02 02:19:36;;;;;;;23.42;7.75;;;14.00;99.90;;;;;;5036557;28;20055;-71
2021/09/02 02:22:03;;;;;;;19.70;8.32;;;14.10;99.90;;;;;;5043413;28;20046;-71
2021/09/02 02:24:28;;;;;;;18.98;7.57;;;14.20;99.90;;;;;;5036450;28;20044;-71
2021/09/02 02:26:54;;;;;;;16.90;7.82;;;14.20;99.90;;;;;;5043023;28;20041;-71
2021/09/02 02:29:20;;;;;;;16.30;7.82;;;14.20;99.90;;;;;;5036302;28;20092;-71
2021/09/02 02:31:45;;;;;;;23.65;8.38;;;14.20;99.90;;;;;;5041516;28;20042;-71
2021/09/02 02:34:11;;;;;;;20.10;8.25;;;14.20;99.90;;;;;;5068000;28;20062;-70
2021/09/02 02:36:37;;;;;;;22.25;9.00;;;14.30;99.90;;;;;;5042683;28;20064;-71
2021/09/02 02:39:03;;;;;;;16.27;8.40;;;14.20;99.90;;;;;;5035764;28;20038;-72
2021/09/02 02:41:29;;;;;;;18.42;8.82;;;14.30;99.90;;;;;;5036969;28;20050;-71
2021/09/02 02:43:55;;;;;;;23.60;9.32;;;14.30;99.90;;;;;;5025077;28;20111;-71
2021/09/02 02:46:20;;;;;;;17.67;8.60;;;14.40;99.90;;;;;;5036541;28;20065;-72
2021/09/02 02:48:46;;;;;;;46.15;11.38;;;14.40;99.90;;;;;;5044855;28;20115;-71
2021/09/02 02:51:12;;;;;;;23.52;8.55;;;14.40;99.90;;;;;;5039833;28;20053;-72
2021/09/02 02:53:37;;;;;;;18.90;9.63;;;14.40;99.90;;;;;;5073781;28;20050;-71
2021/09/02 02:56:03;;;;;;;23.58;9.93;;;14.40;99.90;;;;;;5042297;28;20402;-70
2021/09/02 02:58:29;;;;;;;16.42;8.57;;;14.50;99.90;;;;;;5040505;28;20046;-70
2021/09/02 03:00:55;;;;;;;24.90;9.48;;;14.40;99.90;;;;;;5044132;28;20128;-72
2021/09/02 03:03:20;;;;;;;19.90;9.93;;;14.50;99.90;;;;;;5038822;28;20076;-71
2021/09/02 03:05:46;;;;;;;22.25;10.18;;;14.50;99.90;;;;;;5043121;28;20043;-69
2021/09/02 03:08:12;;;;;;;21.42;9.55;;;14.50;99.90;;;;;;5036202;28;20045;-72
2021/09/02 03:10:37;;;;;;;16.70;8.52;;;14.50;99.90;;;;;;5043021;28;20408;-72
2021/09/02 03:13:03;;;;;;;27.60;11.43;;;14.60;99.90;;;;;;5069182;28;20484;-71
2021/09/02 03:15:30;;;;;;;20.73;9.32;;;14.60;99.90;;;;;;5042520;28;20049;-70
2021/09/02 03:17:57;;;;;;;21.90;10.52;;;14.60;99.90;;;;;;5036689;28;20045;-71
2021/09/02 03:20:22;;;;;;;28.48;10.88;;;14.60;99.90;;;;;;5042820;28;20061;-71
2021/09/02 03:22:48;;;;;;;31.67;12.20;;;14.70;99.90;;;;;;5034989;28;20482;-71
2021/09/02 03:25:14;;;;;;;27.20;12.88;;;14.70;99.90;;;;;;5042247;28;20053;-72
2021/09/02 03:27:41;;;;;;;27.70;11.55;;;14.70;99.90;;;;;;5034537;28;20037;-71
2021/09/02 03:30:08;;;;;;;25.37;12.07;;;14.70;99.90;;;;;;5043316;28;20398;-71
2021/09/02 03:32:33;;;;;;;26.30;13.32;;;14.70;99.90;;;;;;5035823;28;20065;-72
2021/09/02 03:34:59;;;;;;;24.30;13.00;;;14.70;99.90;;;;;;5042740;28;20053;-71
2021/09/02 03:37:25;;;;;;;26.55;12.38;;;14.70;99.90;;;;;;5033434;28;20070;-72
2021/09/02 03:39:51;;;;;;;24.63;12.82;;;14.80;99.90;;;;;;5042629;28;20057;-71
2021/09/02 03:42:16;;;;;;;30.77;13.00;;;14.80;99.90;;;;;;5037805;28;20380;-72
2021/09/02 03:44:42;;;;;;;31.00;13.50;;;14.90;99.90;;;;;;5039243;28;20099;-71
2021/09/02 03:47:08;;;;;;;30.42;13.00;;;14.80;99.90;;;;;;5071174;28;20129;-71
2021/09/02 03:49:33;;;;;;;53.38;13.75;;;14.90;99.90;;;;;;5040128;28;20038;-71
2021/09/02 03:51:59;;;;;;;33.28;12.48;;;14.80;99.90;;;;;;5037570;28;20164;-71
2021/09/02 03:54:25;;;;;;;30.77;13.70;;;14.90;99.90;;;;;;5041835;28;20435;-71
2021/09/02 03:56:50;;;;;;;28.42;12.13;;;14.90;99.90;;;;;;5038579;28;20128;-72
2021/09/02 03:59:16;;;;;;;26.58;13.35;;;14.80;99.90;;;;;;5026491;28;20042;-71
2021/09/02 04:01:42;;;;;;;24.65;11.73;;;14.90;99.90;;;;;;5021092;28;20057;-71
2021/09/02 04:04:08;;;;;;;30.52;12.55;;;14.90;99.90;;;;;;5044954;28;20045;-71
2021/09/02 04:06:33;;;;;;;28.10;13.45;;;14.90;99.90;;;;;;5037371;28;20045;-71
2021/09/02 04:08:59;;;;;;;26.15;13.27;;;14.90;99.90;;;;;;5043972;28;20037;-71
2021/09/02 04:11:25;;;;;;;28.77;12.88;;;14.80;99.90;;;;;;5036712;28;20053;-71
2021/09/02 04:13:50;;;;;;;22.05;12.07;;;14.80;99.90;;;;;;5042748;28;20045;-69
2021/09/02 04:16:16;;;;;;;28.42;11.68;;;14.90;99.90;;;;;;5036828;28;20636;-71
2021/09/02 04:18:42;;;;;;;28.67;11.95;;;14.80;99.90;;;;;;5043531;28;20064;-71
2021/09/02 04:21:08;;;;;;;29.67;11.15;;;14.80;99.90;;;;;;5039060;28;20057;-72
2021/09/02 04:23:35;;;;;;;27.40;11.20;;;14.80;99.90;;;;;;5042433;28;20083;-71
2021/09/02 04:26:02;;;;;;;26.93;10.57;;;14.80;99.90;;;;;;5036366;28;20068;-71
2021/09/02 04:28:28;;;;;;;25.38;9.75;;;14.80;99.90;;;;;;5043219;28;20300;-70
2021/09/02 04:30:54;;;;;;;25.17;10.13;;;14.80;99.90;;;;;;5035714;28;20038;-71
2021/09/02 04:33:20;;;;;;;27.85;9.60;;;14.80;99.90;;;;;;5042853;28;20081;-71
2021/09/02 04:35:46;;;;;;;22.23;9.20;;;14.90;99.90;;;;;;5034867;28;20050;-71
2021/09/02 04:38:11;;;;;;;24.42;9.40;;;14.80;99.90;;;;;;5041581;28;20080;-71
2021/09/02 04:40:37;;;;;;;17.88;8.18;;;14.80;99.90;;;;;;5035880;28;20053;-71
2021/09/02 04:43:03;;;;;;;27.58;9.95;;;14.80;99.90;;;;;;5040645;28;20033;-71
2021/09/02 04:45:29;;;;;;;22.25;9.45;;;14.90;99.90;;;;;;5038851;28;20050;-71
2021/09/02 04:47:55;;;;;;;27.08;8.32;;;14.80;99.90;;;;;;5032731;28;20069;-70
2021/09/02 04:50:21;;;;;;;19.35;8.52;;;14.80;99.90;;;;;;5038168;28;20514;-71
2021/09/02 04:52:47;;;;;;;22.95;8.25;;;14.80;99.90;;;;;;5064415;28;20057;-71
2021/09/02 04:55:13;;;;;;;19.48;9.10;;;14.90;99.90;;;;;;5038585;28;20398;-72
2021/09/02 04:57:40;;;;;;;22.70;8.45;;;14.80;99.90;;;;;;5031935;28;20046;-71
2021/09/02 05:00:07;;;;;;;23.97;8.33;;;14.90;99.90;;;;;;5037133;28;20521;-72
2021/09/02 05:02:33;;;;;;;18.85;9.35;;;14.80;99.90;;;;;;5031246;28;20080;-71
2021/09/02 05:04:58;;;;;;;18.17;8.48;;;14.80;99.90;;;;;;5038352;28;20042;-71
2021/09/02 05:07:24;;;;;;;23.92;7.70;;;14.80;99.90;;;;;;5029761;28;20041;-71
2021/09/02 05:09:50;;;;;;;24.52;8.40;;;14.70;99.90;;;;;;5035526;28;20045;-72
2021/09/02 05:12:16;;;;;;;20.20;7.25;;;14.80;99.90;;;;;;5043321;28;20034;-72
2021/09/02 05:14:43;;;;;;;22.45;9.02;;;14.80;99.90;;;;;;5037166;28;20057;-71
2021/09/02 05:17:10;;;;;;;17.77;8.00;;;14.80;99.90;;;;;;5030200;28;20084;-71
2021/09/02 05:19:35;;;;;;;23.50;7.30;;;14.80;99.90;;;;;;5037169;28;20041;-71
2021/09/02 05:22:01;;;;;;;25.25;9.20;;;14.80;99.90;;;;;;5028812;28;20100;-71
2021/09/02 05:24:27;;;;;;;15.07;6.93;;;14.80;99.90;;;;;;5035841;28;20402;-71
2021/09/02 05:26:53;;;;;;;21.05;8.50;;;14.80;99.90;;;;;;5043326;28;20105;-71
2021/09/02 05:29:18;;;;;;;23.98;7.57;;;14.80;99.90;;;;;;5036955;28;20060;-71
2021/09/02 05:31:44;;;;;;;19.90;7.68;;;14.90;99.90;;;;;;5038824;28;20049;-71
2021/09/02 05:34:10;;;;;;;16.58;7.22;;;14.90;99.90;;;;;;5034605;28;20061;-71
2021/09/02 05:36:36;;;;;;;24.65;8.38;;;14.90;99.90;;;;;;5044373;28;20080;-71
2021/09/02 05:39:03;;;;;;;18.17;6.88;;;14.90;99.90;;;;;;5073168;28;20045;-71
2021/09/02 05:41:29;;;;;;;20.42;7.25;;;14.90;99.90;;;;;;5044908;28;20049;-71
2021/09/02 05:43:54;;;;;;;16.33;6.68;;;14.90;99.90;;;;;;5041449;28;20129;-71
2021/09/02 05:46:20;;;;;;;13.55;6.60;;;15.00;99.90;;;;;;5040324;28;20440;-71
2021/09/02 05:48:46;;;;;;;23.48;7.45;;;15.00;99.90;;;;;;5043520;28;20038;-71
2021/09/02 05:51:12;;;;;;;21.27;8.63;;;15.00;99.90;;;;;;5035711;28;20106;-71
2021/09/02 05:53:38;;;;;;;23.17;6.90;;;15.00;99.90;;;;;;5043328;28;20047;-71
2021/09/02 05:56:05;;;;;;;18.38;6.45;;;15.00;99.90;;;;;;5035824;28;20042;-71
2021/09/02 05:58:31;;;;;;;17.52;6.82;;;15.00;99.90;;;;;;5041243;28;20049;-71
2021/09/02 06:00:57;;;;;;;14.55;5.82;;;15.10;99.90;;;;;;5042108;28;20044;-71
2021/09/02 06:03:23;;;;;;;23.40;8.30;;;15.10;99.90;;;;;;5040744;28;20045;-71
2021/09/02 06:05:49;;;;;;;13.80;6.70;;;15.10;99.90;;;;;;5033281;28;20041;-69
2021/09/02 06:08:14;;;;;;;21.10;7.60;;;15.10;99.90;;;;;;5041630;28;20100;-72
2021/09/02 06:10:40;;;;;;;18.30;6.70;;;15.10;99.90;;;;;;5032879;28;20045;-69
2021/09/02 06:13:06;;;;;;;17.38;6.45;;;15.20;99.90;;;;;;5040783;28;20440;-72
2021/09/02 06:15:32;;;;;;;17.08;6.07;;;15.20;99.90;;;;;;5033097;28;20068;-70
2021/09/02 06:17:58;;;;;;;17.02;5.65;;;15.20;99.90;;;;;;5039110;28;20489;-71
2021/09/02 06:20:25;;;;;;;15.57;5.80;;;15.20;99.90;;;;;;5033163;28;20069;-72
2021/09/02 06:22:51;;;;;;;22.48;6.05;;;15.20;99.90;;;;;;5032809;28;20053;-72
2021/09/02 06:25:17;;;;;;;20.33;5.88;;;15.30;99.90;;;;;;5035089;28;20065;-71
2021/09/02 06:27:43;;;;;;;13.90;6.03;;;15.30;99.90;;;;;;5038329;28;20144;-69
2021/09/02 06:30:09;;;;;;;17.52;5.88;;;15.30;99.90;;;;;;5036914;28;20046;-72
2021/09/02 06:32:35;;;;;;;15.18;5.20;;;15.40;99.90;;;;;;5036213;28;20064;-72
2021/09/02 06:35:01;;;;;;;15.20;5.63;;;15.40;99.90;;;;;;5038724;28;20437;-70
2021/09/02 06:37:27;;;;;;;17.08;5.82;;;15.40;99.90;;;;;;5031865;28;20077;-72
2021/09/02 06:39:52;;;;;;;20.73;7.25;;;15.40;99.90;;;;;;5038651;28;20061;-70
2021/09/02 06:42:18;;;;;;;17.38;6.65;;;15.50;99.90;;;;;;5033530;28;20048;-69
2021/09/02 06:44:44;;;;;;;20.45;6.75;;;15.50;99.90;;;;;;5040937;28;20041;-69
2021/09/02 06:47:09;;;;;;;19.25;5.85;;;15.50;99.90;;;;;;5041052;28;20061;-69
2021/09/02 06:49:35;;;;;;;20.80;6.40;;;15.50;99.90;;;;;;5036496;28;20060;-70
2021/09/02 06:52:01;;;;;;;20.70;7.43;;;15.50;99.90;;;;;;5040485;28;20056;-72
2021/09/02 06:54:27;;;;;;;19.52;6.63;;;15.60;99.90;;;;;;5044684;28;20053;-71
2021/09/02 06:56:53;;;;;;;24.67;7.80;;;15.60;99.90;;;;;;5041926;28;20393;-70
2021/09/02 06:59:19;;;;;;;20.10;6.22;;;15.60;99.90;;;;;;5036848;28;20041;-70
2021/09/02 07:01:47;;;;;;;14.13;6.03;;;15.60;99.90;;;;;;5041091;28;20051;-71
2021/09/02 07:04:14;;;;;;;11.93;6.07;;;15.60;99.90;;;;;;5043722;28;20041;-71
2021/09/02 07:06:40;;;;;;;17.47;6.27;;;15.60;99.90;;;;;;5039251;28;20128;-71
2021/09/02 07:09:06;;;;;;;20.90;7.00;;;15.70;99.90;;;;;;5045808;28;20308;-70
2021/09/02 07:11:31;;;;;;;19.88;6.90;;;15.70;99.90;;;;;;5072626;28;20143;-70
2021/09/02 07:13:57;;;;;;;16.75;6.32;;;15.70;99.90;;;;;;5043515;28;20049;-71
2021/09/02 07:16:23;;;;;;;15.38;6.78;;;15.70;99.90;;;;;;5041828;28;20046;-71
2021/09/02 07:18:49;;;;;;;22.92;7.55;;;15.70;99.90;;;;;;5033407;28;20045;-71
2021/09/02 07:21:14;;;;;;;12.63;6.35;;;15.80;99.90;;;;;;5036419;28;20397;-70
2021/09/02 07:23:40;;;;;;;17.15;6.03;;;15.80;99.90;;;;;;5037089;28;20048;-71
2021/09/02 07:26:07;;;;;;;17.45;6.78;;;15.80;99.90;;;;;;5042402;28;20045;-70
2021/09/02 07:28:33;;;;;;;15.73;6.88;;;15.90;99.90;;;;;;5040514;28;20049;-70
2021/09/02 07:30:59;;;;;;;17.08;7.07;;;15.90;99.90;;;;;;5044230;28;20068;-71
2021/09/02 07:33:24;;;;;;;18.77;7.22;;;15.90;99.90;;;;;;5037300;28;20054;-71
2021/09/02 07:35:50;;;;;;;22.83;6.88;;;16.00;99.90;;;;;;5039682;28;20061;-71
2021/09/02 07:38:16;;;;;;;15.52;6.25;;;16.00;99.90;;;;;;5035763;28;20045;-71
2021/09/02 07:40:41;;;;;;;15.65;5.90;;;16.00;99.90;;;;;;5037270;28;20057;-70
2021/09/02 07:43:07;;;;;;;16.77;5.65;;;16.00;99.90;;;;;;5069606;28;20050;-70
2021/09/02 07:45:33;;;;;;;11.07;5.75;;;16.10;99.90;;;;;;5067426;28;20072;-71
2021/09/02 07:47:58;;;;;;;19.73;7.20;;;16.10;99.90;;;;;;5042392;28;20064;-71
2021/09/02 07:50:25;;;;;;;20.20;5.90;;;16.10;99.90;;;;;;5041619;28;20099;-71
2021/09/02 07:52:50;;;;;;;15.63;6.97;;;16.10;99.90;;;;;;5040646;28;20041;-71
2021/09/02 07:55:16;;;;;;;11.05;5.32;;;16.20;99.90;;;;;;5040311;28;20045;-70
2021/09/02 07:57:47;;;;;;;16.48;5.88;;;16.20;99.90;;;;;;5046258;28;20121;-71
2021/09/02 08:00:14;;;;;;;14.52;5.68;;;16.20;99.90;;;;;;5077202;28;20060;-71
2021/09/02 08:02:40;;;;;;;14.10;6.15;;;16.20;99.90;;;;;;5041948;28;20053;-71
2021/09/02 08:05:06;;;;;;;18.05;6.35;;;16.30;99.90;;;;;;5037546;28;20433;-71
2021/09/02 08:07:41;;;;;;;14.87;7.27;;;16.30;99.90;;;;;;5041552;28;20041;-71
2021/09/02 08:10:07;;;;;;;18.30;5.47;;;16.40;99.90;;;;;;5041824;28;20077;-71
2021/09/02 08:12:33;;;;;;;18.48;6.80;;;16.40;99.90;;;;;;5043153;28;20466;-71
2021/09/02 08:14:58;;;;;;;18.00;6.25;;;16.50;99.90;;;;;;5045717;28;20049;-71
2021/09/02 08:17:24;;;;;;;18.95;6.00;;;16.60;99.90;;;;;;5047043;28;20482;-71
2021/09/02 08:19:50;;;;;;;14.00;6.05;;;16.50;99.90;;;;;;5045165;28;20103;-71
2021/09/02 08:22:15;;;;;;;15.90;6.47;;;16.60;99.90;;;;;;5067633;28;20057;-71
2021/09/02 08:24:41;;;;;;;14.05;5.57;;;16.70;99.90;;;;;;5037191;28;20059;-71
2021/09/02 08:27:07;;;;;;;15.85;5.68;;;16.70;99.90;;;;;;5034334;28;20079;-73
2021/09/02 08:29:32;;;;;;;11.13;5.13;;;16.60;99.90;;;;;;5040685;28;20084;-71
2021/09/02 08:31:58;;;;;;;12.02;5.75;;;16.70;99.90;;;;;;5034151;28;20045;-71
2021/09/02 08:34:24;;;;;;;17.50;6.55;;;16.80;99.90;;;;;;5069609;28;20060;-71
2021/09/02 08:36:49;;;;;;;11.48;5.38;;;16.80;99.90;;;;;;5042833;28;20053;-71
2021/09/02 08:39:15;;;;;;;11.77;5.63;;;16.90;99.90;;;;;;5036079;28;20048;-71
2021/09/02 08:41:42;;;;;;;13.45;5.25;;;16.80;99.90;;;;;;5041707;28;20033;-70
2021/09/02 08:44:09;;;;;;;17.25;5.82;;;16.70;99.90;;;;;;5032569;28;20042;-70
2021/09/02 08:46:35;;;;;;;13.53;5.67;;;16.80;99.90;;;;;;5037386;28;20098;-71
2021/09/02 08:49:04;;;;;;;13.65;5.45;;;16.80;99.90;;;;;;5041023;28;20910;-71
2021/09/02 08:51:29;;;;;;;14.23;6.18;;;16.80;99.90;;;;;;5041104;28;20072;-71
2021/09/02 08:53:55;;;;;;;16.65;6.55;;;16.80;99.90;;;;;;5042221;28;20041;-71
2021/09/02 08:56:21;;;;;;;13.70;5.28;;;16.80;99.90;;;;;;5030155;28;20052;-71
2021/09/02 08:58:47;;;;;;;13.23;5.25;;;17.00;99.90;;;;;;5035675;28;20101;-71
2021/09/02 09:01:13;;;;;;;13.10;5.22;;;17.00;99.90;;;;;;5035433;28;20083;-70
2021/09/02 09:03:38;;;;;;;10.55;5.22;;;17.10;99.90;;;;;;5040980;28;20097;-71
2021/09/02 09:06:08;;;;;;;17.52;5.95;;;17.10;99.90;;;;;;5037950;28;20048;-70
2021/09/02 09:08:37;;;;;;;14.75;6.88;;;17.10;99.90;;;;;;5035466;28;20061;-71
2021/09/02 09:11:26;;;;;;;23.05;6.15;;;17.10;99.90;;;;;;5040837;28;20041;-68
2021/09/02 09:14:14;;;;;;;13.75;6.32;;;17.00;99.90;;;;;;5040850;28;20069;-74
2021/09/02 09:17:00;;;;;;;18.42;6.55;;;17.00;99.90;;;;;;5041015;28;20041;-74
2021/09/02 09:19:41;;;;;;;12.93;5.88;;;17.00;99.90;;;;;;5034966;28;20056;-66
2021/09/02 09:22:13;;;;;;;15.43;6.40;;;17.00;99.90;;;;;;5039007;28;20045;-66
2021/09/02 09:24:49;;;;;;;17.60;6.38;;;17.00;99.90;;;;;;5042707;28;20044;-66
2021/09/02 09:27:21;;;;;;;14.65;6.32;;;17.10;99.90;;;;;;5038220;28;20050;-66
2021/09/02 09:30:19;;;;;;;21.30;5.80;;;17.20;99.90;;;;;;5044494;28;20047;-66
2021/09/02 09:32:50;;;;;;;13.95;5.90;;;17.20;99.90;;;;;;5031387;28;20532;-66
2021/09/02 09:35:28;;;;;;;11.68;5.30;;;17.30;99.90;;;;;;5045122;28;20065;-66
2021/09/02 09:38:15;;;;;;;12.90;6.18;;;17.30;99.90;;;;;;5042174;28;20041;-66
2021/09/02 09:40:43;;;;;;;15.38;5.68;;;17.40;99.90;;;;;;5035711;28;20045;-66
2021/09/02 09:43:14;;;;;;;11.85;6.03;;;17.40;99.90;;;;;;5045679;28;20072;-66
2021/09/02 09:45:51;;;;;;;12.40;5.80;;;17.40;99.90;;;;;;5044866;28;20088;-66
2021/09/02 09:48:19;;;;;;;13.45;5.72;;;17.40;99.90;;;;;;5037045;28;20042;-66
2021/09/02 09:50:47;;;;;;;17.00;6.20;;;17.40;99.90;;;;;;5043983;28;20077;-66
2021/09/02 09:53:27;;;;;;;14.80;5.53;;;17.40;99.90;;;;;;5036251;28;20069;-66
2021/09/02 09:55:53;;;;;;;15.23;6.50;;;17.30;99.90;;;;;;5043311;28;20547;-67
2021/09/02 09:58:23;;;;;;;15.38;6.13;;;17.40;99.90;;;;;;5036185;28;20046;-66
2021/09/02 10:00:53;;;;;;;16.42;5.60;;;17.40;99.90;;;;;;5042535;28;20343;-66
2021/09/02 10:03:20;;;;;;;14.52;6.07;;;17.40;99.90;;;;;;5035086;28;20085;-66
2021/09/02 10:05:48;;;;;;;10.27;5.28;;;17.40;99.90;;;;;;5040728;28;20073;-67
2021/09/02 10:08:15;;;;;;;27.58;5.82;;;17.50;99.90;;;;;;5036979;28;20164;-66
2021/09/02 10:10:41;;;;;;;9.38;5.00;;;17.60;99.90;;;;;;5038748;28;20071;-67
2021/09/02 10:13:08;;;;;;;11.02;5.15;;;17.50;99.90;;;;;;5037857;28;20042;-66
2021/09/02 10:15:34;;;;;;;9.60;5.50;;;17.40;99.90;;;;;;5036149;28;20053;-66
2021/09/02 10:18:04;;;;;;;14.15;6.25;;;17.50;99.90;;;;;;5038749;28;20037;-66
2021/09/02 10:20:34;;;;;;;15.75;5.30;;;17.50;99.90;;;;;;5033747;28;20076;-66
2021/09/02 10:23:02;;;;;;;17.77;5.35;;;17.60;99.90;;;;;;5043245;28;20049;-67
2021/09/02 10:25:33;;;;;;;14.80;6.32;;;17.60;99.90;;;;;;5038909;28;20105;-66
2021/09/02 10:28:09;;;;;;;11.63;4.85;;;17.70;99.90;;;;;;5033559;28;20039;-66
2021/09/02 10:30:47;;;;;;;15.55;6.40;;;17.70;99.90;;;;;;5038109;28;20117;-66
2021/09/02 10:33:48;;;;;;;12.77;5.68;;;17.70;99.90;;;;;;5033862;28;20085;-66
2021/09/02 10:36:14;;;;;;;19.13;5.45;;;17.70;99.90;;;;;;5022739;28;20054;-67
2021/09/02 10:38:45;;;;;;;12.45;6.45;;;17.70;99.90;;;;;;5023711;28;20092;-67
2021/09/02 10:41:12;;;;;;;11.18;5.50;;;17.70;99.90;;;;;;5023381;28;20042;-66
2021/09/02 10:43:50;;;;;;;14.02;5.70;;;17.90;99.90;;;;;;5023602;28;20132;-66
2021/09/02 10:46:25;;;;;;;11.45;5.55;;;17.80;99.90;;;;;;5023279;28;20049;-66
2021/09/02 10:48:51;;;;;;;14.40;5.35;;;18.00;99.90;;;;;;5018252;28;20184;-66
2021/09/02 10:51:34;;;;;;;16.35;6.50;;;18.00;99.90;;;;;;5022794;28;20054;-66
2021/09/02 10:54:03;;;;;;;15.18;5.28;;;18.00;99.90;;;;;;5023095;28;20433;-67
2021/09/02 10:56:33;;;;;;;18.85;6.00;;;18.00;99.90;;;;;;5023021;28;20058;-67
2021/09/02 10:58:59;;;;;;;14.32;6.03;;;18.00;99.90;;;;;;5022957;28;20133;-67
2021/09/02 11:01:28;;;;;;;15.95;5.80;;;18.10;99.90;;;;;;5022874;28;20145;-67
2021/09/02 11:03:56;;;;;;;15.25;5.55;;;18.20;99.90;;;;;;5023134;28;20052;-67
2021/09/02 11:06:22;;;;;;;14.10;5.50;;;18.20;99.90;;;;;;5022271;28;20054;-67
2021/09/02 11:08:48;;;;;;;12.48;5.03;;;18.20;99.90;;;;;;5023171;28;20046;-66
2021/09/02 11:11:16;;;;;;;11.30;5.80;;;18.10;99.90;;;;;;5039571;28;20064;-66
2021/09/02 11:13:42;;;;;;;;;;;18.10;99.90;;;;;;5034217;28;20049;-67
2021/09/02 11:16:13;;;;;;;12.68;4.70;;;18.20;99.90;;;;;;5040296;28;19961;-67
2021/09/02 11:18:43;;;;;;;13.43;6.15;;;18.20;99.90;;;;;;5033227;28;20501;-67
2021/09/02 11:21:28;;;;;;;10.30;5.20;;;18.20;99.90;;;;;;5031338;28;20417;-67
2021/09/02 11:24:02;;;;;;;11.88;5.35;;;18.30;99.90;;;;;;5043209;28;20049;-67
2021/09/02 11:26:44;;;;;;;11.43;5.38;;;18.40;99.90;;;;;;5038421;28;20497;-67
2021/09/02 11:29:24;;;;;;;11.25;5.03;;;18.30;99.90;;;;;;5031687;28;20057;-67
2021/09/02 11:32:12;;;;;;;15.02;5.30;;;18.30;99.90;;;;;;5037862;28;20605;-66
2021/09/02 11:34:39;;;;;;;;;;;18.30;99.90;;;;;;5044431;28;20077;-67
2021/09/02 11:37:06;;;;;;;12.93;5.22;;;18.40;99.90;;;;;;5036905;28;19943;-67
2021/09/02 11:39:33;;;;;;;;;;;18.30;99.90;;;;;;5044221;28;20049;-67
2021/09/02 11:42:10;;;;;;;14.82;4.95;;;18.30;99.90;;;;;;5036490;28;20167;-67
2021/09/02 11:44:39;;;;;;;10.18;5.43;;;18.40;99.90;;;;;;5043097;28;20038;-67
2021/09/02 11:47:10;;;;;;;9.43;4.90;;;18.60;99.90;;;;;;5031901;28;20038;-67
2021/09/02 11:49:36;;;;;;;10.60;5.38;;;18.80;99.90;;;;;;5039056;28;20456;-67
2021/09/02 11:52:04;;;;;;;11.93;4.90;;;18.80;99.90;;;;;;5029178;28;20041;-67
2021/09/02 11:54:33;;;;;;;10.15;4.60;;;18.80;99.90;;;;;;5035373;28;20589;-67
2021/09/02 11:56:59;;;;;;;11.90;5.60;;;19.00;99.90;;;;;;5044424;28;20068;-67
2021/09/02 11:59:24;;;;;;;13.95;5.88;;;18.80;99.90;;;;;;5037096;28;20046;-67
2021/09/02 12:01:53;;;;;;;12.82;5.32;;;18.90;99.90;;;;;;5043414;28;20057;-67
2021/09/02 12:04:27;;;;;;;13.32;5.30;;;18.70;99.90;;;;;;5036424;28;20053;-67
2021/09/02 12:07:01;;;;;;;14.63;5.75;;;18.60;99.90;;;;;;5042290;28;20045;-67
2021/09/02 12:09:36;;;;;;;10.73;5.00;;;18.70;99.90;;;;;;5035451;28;20045;-67
2021/09/02 12:12:02;;;;;;;13.85;5.50;;;18.80;99.90;;;;;;5041844;28;20037;-67
2021/09/02 12:14:29;;;;;;;12.48;5.40;;;19.00;99.90;;;;;;5034566;28;20470;-68
2021/09/02 12:17:09;;;;;;;12.88;6.53;;;18.80;99.90;;;;;;5041090;28;20076;-68
2021/09/02 12:19:55;;;;;;;11.93;6.18;;;18.80;99.90;;;;;;5032140;28;20441;-69
2021/09/02 12:22:23;;;;;;;9.18;5.03;;;18.90;99.90;;;;;;5037261;28;20050;-67
2021/09/02 12:24:49;;;;;;;11.90;5.10;;;18.80;99.90;;;;;;5042953;28;20053;-67
2021/09/02 12:27:15;;;;;;;16.52;5.63;;;18.90;99.90;;;;;;5039296;28;20093;-67
2021/09/02 12:29:49;;;;;;;11.82;5.32;;;19.10;99.90;;;;;;5032478;28;20080;-68
2021/09/02 12:32:19;;;;;;;12.85;4.80;;;19.10;99.90;;;;;;5036729;28;20041;-68
2021/09/02 12:34:46;;;;;;;10.43;5.38;;;19.30;99.90;;;;;;5030175;28;20046;-67
2021/09/02 12:37:14;;;;;;;13.18;4.70;;;19.20;99.90;;;;;;5036040;28;20072;-68
2021/09/02 12:39:49;;;;;;;10.82;5.30;;;19.30;99.90;;;;;;5037644;28;20075;-68
2021/09/02 12:42:27;;;;;;;19.95;6.13;;;19.30;99.90;;;;;;5037764;28;20104;-68